Time;durP1;ratioP1;P1;durP2;ratioP2;P2;SDS_P1;SDS_P2;PMS_P1;PMS_P2;Temp;Humidity;BMP_temperature;BMP_pressure;BME280_temperature;BME280_humidity;BME280_pressure;Samples;Min_cycle;Max_cycle;Signal;HPM_P1;HPM_P2
2023/01/02 00:01:27;;;;;;;6.80;2.43;;;12.70;99.90;;;;;;5016609;28;20677;-48
2023/01/02 00:03:56;;;;;;;11.80;3.07;;;12.80;99.90;;;;;;5016342;28;20206;-49
2023/01/02 00:06:22;;;;;;;10.47;2.87;;;12.90;99.90;;;;;;5016619;28;20642;-49
2023/01/02 00:08:48;;;;;;;9.43;3.13;;;12.90;99.90;;;;;;5016730;28;20178;-49
2023/01/02 00:11:13;;;;;;;6.97;2.60;;;12.80;99.90;;;;;;5016340;28;20300;-49
2023/01/02 00:13:39;;;;;;;8.07;3.00;;;12.80;99.90;;;;;;5016210;28;20232;-48
2023/01/02 00:16:05;;;;;;;8.73;2.70;;;12.80;99.90;;;;;;5016529;28;20613;-48
2023/01/02 00:18:31;;;;;;;15.30;2.87;;;12.80;99.90;;;;;;5016162;28;20550;-47
2023/01/02 00:21:04;;;;;;;12.73;3.43;;;12.90;99.90;;;;;;5016165;28;20194;-48
2023/01/02 00:23:31;;;;;;;5.50;2.70;;;12.90;99.90;;;;;;5016082;28;20174;-48
2023/01/02 00:25:57;;;;;;;7.73;2.90;;;12.90;99.90;;;;;;5016716;28;20591;-47
2023/01/02 00:28:22;;;;;;;5.97;2.43;;;12.90;99.90;;;;;;5015947;28;20178;-49
2023/01/02 00:30:48;;;;;;;6.50;2.63;;;12.90;99.90;;;;;;5016321;28;20638;-48
2023/01/02 00:33:14;;;;;;;10.80;2.73;;;12.90;99.90;;;;;;5016221;28;20181;-49
2023/01/02 00:35:40;;;;;;;9.87;2.97;;;12.90;99.90;;;;;;5016130;28;20181;-48
2023/01/02 00:38:06;;;;;;;11.53;3.20;;;12.90;99.90;;;;;;5016091;28;20181;-49
2023/01/02 00:40:31;;;;;;;14.70;3.50;;;12.90;99.90;;;;;;5015949;28;20256;-49
2023/01/02 00:42:57;;;;;;;9.40;3.23;;;12.90;99.90;;;;;;5014530;28;20197;-49
2023/01/02 00:45:22;;;;;;;9.63;3.33;;;12.80;99.90;;;;;;5015739;28;20209;-48
2023/01/02 00:47:48;;;;;;;13.30;2.90;;;12.80;99.90;;;;;;5015982;28;20268;-50
2023/01/02 00:50:14;;;;;;;9.60;3.53;;;12.70;99.90;;;;;;5015665;28;20174;-48
2023/01/02 00:52:39;;;;;;;11.73;3.23;;;12.70;99.90;;;;;;5014722;28;20194;-49
2023/01/02 00:55:05;;;;;;;7.13;3.10;;;12.60;99.90;;;;;;5015836;28;20189;-49
2023/01/02 00:57:31;;;;;;;6.90;2.93;;;12.60;99.90;;;;;;5015446;28;20186;-49
2023/01/02 00:59:56;;;;;;;6.40;3.00;;;12.50;99.90;;;;;;5015540;28;20174;-50
2023/01/02 01:02:22;;;;;;;14.90;2.90;;;12.50;99.90;;;;;;5015627;28;20194;-48
2023/01/02 01:04:47;;;;;;;12.83;3.23;;;12.50;99.90;;;;;;5015338;28;20209;-49
2023/01/02 01:07:13;;;;;;;8.87;3.47;;;12.60;99.90;;;;;;5015262;28;20230;-49
2023/01/02 01:09:38;;;;;;;7.23;2.43;;;12.60;99.90;;;;;;5015609;28;20174;-47
2023/01/02 01:12:04;;;;;;;7.27;2.80;;;12.60;99.90;;;;;;5015779;28;20286;-49
2023/01/02 01:14:30;;;;;;;8.60;3.20;;;12.60;99.90;;;;;;5015193;28;20192;-50
2023/01/02 01:16:55;;;;;;;5.57;2.87;;;12.60;99.90;;;;;;5015212;28;20181;-49
2023/01/02 01:19:21;;;;;;;8.37;3.50;;;12.70;99.90;;;;;;5015462;28;20184;-49
2023/01/02 01:21:47;;;;;;;7.83;2.70;;;12.70;99.90;;;;;;5015033;28;20201;-51
2023/01/02 01:24:13;;;;;;;10.73;2.87;;;12.70;99.90;;;;;;5015257;28;20208;-50
2023/01/02 01:26:39;;;;;;;6.03;2.73;;;12.70;99.90;;;;;;5015263;28;20182;-50
2023/01/02 01:29:04;;;;;;;4.90;2.33;;;12.70;99.90;;;;;;5014919;28;20200;-50
2023/01/02 01:31:30;;;;;;;11.57;2.73;;;12.70;99.90;;;;;;5015138;28;20197;-49
2023/01/02 01:33:56;;;;;;;10.37;2.93;;;12.70;99.90;;;;;;5014999;28;20181;-52
2023/01/02 01:36:23;;;;;;;6.60;2.60;;;12.80;99.90;;;;;;5015385;28;20181;-50
2023/01/02 01:38:49;;;;;;;7.37;2.90;;;12.80;99.90;;;;;;5015263;28;20209;-44
2023/01/02 01:41:17;;;;;;;8.40;3.00;;;12.80;99.90;;;;;;5014651;28;20224;-43
2023/01/02 01:43:48;;;;;;;9.70;2.83;;;12.90;99.90;;;;;;5014846;28;20198;-46
2023/01/02 01:46:39;;;;;;;10.80;2.47;;;12.90;99.90;;;;;;5014930;28;20162;-47
2023/01/02 01:49:13;;;;;;;9.53;2.47;;;12.90;99.90;;;;;;5014800;28;20174;-46
2023/01/02 01:51:46;;;;;;;5.37;2.40;;;12.90;99.90;;;;;;5014527;28;20204;-44
2023/01/02 01:54:16;;;;;;;7.77;2.63;;;12.80;99.90;;;;;;5014790;28;20307;-43
2023/01/02 01:56:50;;;;;;;9.23;2.87;;;12.80;99.90;;;;;;5014404;28;20550;-45
2023/01/02 01:59:16;;;;;;;8.03;2.40;;;12.80;99.90;;;;;;5014499;28;20178;-44
2023/01/02 02:01:42;;;;;;;6.37;2.80;;;12.80;99.90;;;;;;5014286;28;20237;-45
2023/01/02 02:04:09;;;;;;;9.83;2.80;;;12.90;99.90;;;;;;5014184;28;20237;-48
2023/01/02 02:06:35;;;;;;;4.83;2.83;;;12.90;99.90;;;;;;5014358;28;20182;-42
2023/01/02 02:09:08;;;;;;;6.53;2.70;;;12.80;99.90;;;;;;5014410;28;20208;-46
2023/01/02 02:11:34;;;;;;;7.97;2.83;;;12.90;99.90;;;;;;5014434;28;20740;-44
2023/01/02 02:14:00;;;;;;;6.60;2.40;;;12.90;99.90;;;;;;5014458;28;20177;-45
2023/01/02 02:16:48;;;;;;;7.00;2.97;;;12.80;99.90;;;;;;5014274;28;20193;-46
2023/01/02 02:19:38;;;;;;;7.37;2.57;;;12.90;99.90;;;;;;5014026;28;20239;-47
2023/01/02 02:22:51;;;;;;;7.03;2.73;;;12.90;99.90;;;;;;5014325;28;20209;-44
2023/01/02 02:25:26;;;;;;;6.37;3.03;;;12.90;99.90;;;;;;5014385;28;20202;-43
2023/01/02 02:28:29;;;;;;;6.03;2.03;;;12.90;99.90;;;;;;5014734;28;20519;-44
2023/01/02 02:30:58;;;;;;;6.50;2.37;;;12.90;99.90;;;;;;5013795;28;20173;-44
2023/01/02 02:33:48;;;;;;;9.37;2.63;;;12.90;99.90;;;;;;5014117;28;20549;-46
2023/01/02 02:36:43;;;;;;;10.40;2.57;;;12.90;99.90;;;;;;5013942;28;20188;-45
2023/01/02 02:39:41;;;;;;;8.37;2.77;;;12.80;99.90;;;;;;5014319;28;20185;-44
2023/01/02 02:42:51;;;;;;;8.47;2.70;;;12.80;99.90;;;;;;5013473;28;20249;-45
2023/01/02 02:45:35;;;;;;;11.73;2.77;;;12.80;99.90;;;;;;5013870;28;20655;-44
2023/01/02 02:48:09;;;;;;;8.37;2.73;;;12.70;99.90;;;;;;5013912;28;20249;-45
2023/01/02 02:50:42;;;;;;;9.70;3.30;;;12.70;99.90;;;;;;5013656;28;20566;-44
2023/01/02 02:53:41;;;;;;;7.67;2.73;;;12.60;99.90;;;;;;5013909;28;20265;-45
2023/01/02 02:56:10;;;;;;;9.83;2.83;;;12.60;99.90;;;;;;5013961;28;20547;-45
2023/01/02 02:58:38;;;;;;;6.43;3.10;;;12.60;99.90;;;;;;5013542;28;20707;-44
2023/01/02 03:01:12;;;;;;;10.70;3.40;;;12.60;99.90;;;;;;5013335;28;20197;-45
2023/01/02 03:03:37;;;;;;;6.80;3.00;;;12.50;99.90;;;;;;5013646;28;20204;-44
2023/01/02 03:06:26;;;;;;;13.83;3.70;;;12.50;99.90;;;;;;5013749;28;20575;-46
2023/01/02 03:09:20;;;;;;;8.10;3.20;;;12.40;99.90;;;;;;5013362;28;20174;-45
2023/01/02 03:12:05;;;;;;;6.83;2.47;;;12.50;99.90;;;;;;5013486;28;20570;-47
2023/01/02 03:15:00;;;;;;;9.73;3.17;;;12.40;99.90;;;;;;5013595;28;20355;-45
2023/01/02 03:17:49;;;;;;;9.37;2.90;;;12.40;99.90;;;;;;5017097;28;20242;-45
2023/01/02 03:20:20;;;;;;;7.70;2.87;;;12.40;99.90;;;;;;5017614;28;20256;-43
2023/01/02 03:22:53;;;;;;;9.83;3.70;;;12.40;99.90;;;;;;5017342;28;20720;-43
2023/01/02 03:25:19;;;;;;;4.73;2.87;;;12.40;99.90;;;;;;5017504;28;20198;-45
2023/01/02 03:27:48;;;;;;;10.47;3.30;;;12.40;99.90;;;;;;5017078;28;20656;-45
2023/01/02 03:30:19;;;;;;;8.83;2.80;;;12.30;99.90;;;;;;5017176;28;20177;-45
2023/01/02 03:33:07;;;;;;;11.30;3.20;;;12.30;99.90;;;;;;5017364;28;20289;-44
2023/01/02 03:35:37;;;;;;;9.33;2.80;;;12.40;99.90;;;;;;5015710;28;20184;-45
2023/01/02 03:38:07;;;;;;;9.60;3.17;;;12.30;99.90;;;;;;5017277;28;20170;-44
2023/01/02 03:40:44;;;;;;;8.13;2.93;;;12.30;99.90;;;;;;5017159;28;20254;-45
2023/01/02 03:43:18;;;;;;;9.50;3.10;;;12.20;99.90;;;;;;5017220;28;20559;-45
2023/01/02 03:45:53;;;;;;;7.23;2.90;;;12.20;99.90;;;;;;5016823;28;20288;-45
2023/01/02 03:48:42;;;;;;;7.47;3.27;;;12.20;99.90;;;;;;5017109;28;20661;-45
2023/01/02 03:51:08;;;;;;;11.30;2.97;;;12.20;99.90;;;;;;5016948;28;20688;-45
2023/01/02 03:53:35;;;;;;;9.77;3.20;;;12.20;99.90;;;;;;5016982;28;20181;-45
2023/01/02 03:56:16;;;;;;;12.33;3.17;;;12.10;99.90;;;;;;5016974;28;20248;-45
2023/01/02 03:58:50;;;;;;;5.87;2.80;;;12.20;99.90;;;;;;5016967;28;20165;-47
2023/01/02 04:01:27;;;;;;;9.17;2.57;;;12.10;99.90;;;;;;5016676;28;20292;-46
2023/01/02 04:04:00;;;;;;;10.17;3.10;;;12.10;99.90;;;;;;5010096;28;20197;-46
2023/01/02 04:06:32;;;;;;;10.90;3.37;;;12.10;99.90;;;;;;5016689;28;20200;-46
2023/01/02 04:09:09;;;;;;;11.63;3.30;;;12.10;99.90;;;;;;5016783;28;20184;-46
2023/01/02 04:11:38;;;;;;;8.83;3.13;;;12.10;99.90;;;;;;5016413;28;20204;-48
2023/01/02 04:14:13;;;;;;;6.87;2.87;;;12.00;99.90;;;;;;5016267;28;20231;-47
2023/01/02 04:16:42;;;;;;;7.47;3.60;;;12.00;99.90;;;;;;5015127;28;20689;-46
2023/01/02 04:19:13;;;;;;;10.03;3.63;;;12.00;99.90;;;;;;5016277;28;20526;-48
2023/01/02 04:21:41;;;;;;;10.67;3.10;;;11.90;99.90;;;;;;5016228;28;20540;-47
2023/01/02 04:24:10;;;;;;;10.30;3.03;;;12.00;99.90;;;;;;5016086;28;20605;-47
2023/01/02 04:26:46;;;;;;;8.03;2.80;;;12.00;99.90;;;;;;5016239;28;20181;-47
2023/01/02 04:29:12;;;;;;;5.23;2.33;;;12.00;99.90;;;;;;5016436;28;20573;-45
2023/01/02 04:31:48;;;;;;;7.17;2.70;;;12.00;99.90;;;;;;5015910;28;20252;-48
2023/01/02 04:34:16;;;;;;;7.03;2.30;;;12.00;99.90;;;;;;5016282;28;20173;-45
2023/01/02 04:36:42;;;;;;;11.33;2.90;;;12.00;99.90;;;;;;5016064;28;20211;-48
2023/01/02 04:39:08;;;;;;;6.87;2.50;;;12.00;99.90;;;;;;5015878;28;20184;-46
2023/01/02 04:41:36;;;;;;;7.60;2.90;;;12.10;99.90;;;;;;5015754;28;20229;-47
2023/01/02 04:44:02;;;;;;;14.13;2.93;;;12.10;99.90;;;;;;5015724;28;20259;-46
2023/01/02 04:46:28;;;;;;;7.87;2.80;;;12.10;99.90;;;;;;5015743;28;20261;-46
2023/01/02 04:48:54;;;;;;;9.77;2.60;;;12.10;99.90;;;;;;5016431;28;20212;-47
2023/01/02 04:51:21;;;;;;;7.70;2.50;;;12.10;99.90;;;;;;5015451;28;20209;-47
2023/01/02 04:53:47;;;;;;;7.30;2.10;;;12.10;99.90;;;;;;5015652;28;20190;-45
2023/01/02 04:56:13;;;;;;;7.67;2.57;;;12.20;99.90;;;;;;5015546;28;20186;-47
2023/01/02 04:58:40;;;;;;;8.20;2.40;;;12.20;99.90;;;;;;5015829;28;20208;-45
2023/01/02 05:01:10;;;;;;;4.67;2.30;;;12.20;99.90;;;;;;5015648;28;20210;-45
2023/01/02 05:03:39;;;;;;;7.67;2.27;;;12.20;99.90;;;;;;5015703;28;20202;-45
2023/01/02 05:06:05;;;;;;;3.40;2.00;;;12.20;99.90;;;;;;5015761;28;20188;-45
2023/01/02 05:08:31;;;;;;;6.57;2.27;;;12.20;99.90;;;;;;5015419;28;20174;-47
2023/01/02 05:10:56;;;;;;;8.03;2.23;;;12.20;99.90;;;;;;5014035;28;20205;-45
2023/01/02 05:13:22;;;;;;;3.83;1.97;;;12.20;99.90;;;;;;5015674;28;20269;-46
2023/01/02 05:15:57;;;;;;;3.13;1.80;;;12.10;99.90;;;;;;5016355;28;20193;-46
2023/01/02 05:18:22;;;;;;;5.97;2.20;;;12.20;99.90;;;;;;5015481;28;20699;-47
2023/01/02 05:20:48;;;;;;;5.63;2.17;;;12.20;99.90;;;;;;5015369;28;20198;-46
2023/01/02 05:25:58;;;;;;;8.43;3.00;;;12.20;99.90;;;;;;5015717;28;20169;-46
2023/01/02 05:28:24;;;;;;;5.37;1.90;;;12.20;99.90;;;;;;5015630;28;20182;-45
2023/01/02 05:30:49;;;;;;;7.27;1.97;;;12.10;99.90;;;;;;5015346;28;20173;-46
2023/01/02 05:33:15;;;;;;;4.90;2.23;;;12.20;99.90;;;;;;5015367;28;20352;-46
2023/01/02 05:35:40;;;;;;;5.57;2.40;;;12.20;99.90;;;;;;5015236;28;20597;-46
2023/01/02 05:38:06;;;;;;;2.90;1.80;;;12.10;99.90;;;;;;5014666;28;20645;-45
2023/01/02 05:40:32;;;;;;;3.67;2.20;;;12.10;99.90;;;;;;5014648;28;20538;-46
2023/01/02 05:42:58;;;;;;;5.33;2.00;;;12.10;99.90;;;;;;5013617;28;20213;-46
2023/01/02 05:45:24;;;;;;;7.30;1.97;;;12.20;99.90;;;;;;5015006;28;20291;-46
2023/01/02 05:47:50;;;;;;;7.63;2.20;;;12.10;99.90;;;;;;5014987;28;20260;-46
2023/01/02 05:50:15;;;;;;;4.80;1.70;;;12.20;99.90;;;;;;5014731;28;20261;-46
2023/01/02 05:52:41;;;;;;;5.93;1.80;;;12.20;99.90;;;;;;5006678;28;20208;-46
2023/01/02 05:55:07;;;;;;;5.07;2.10;;;12.10;99.90;;;;;;5014653;28;20185;-46
2023/01/02 05:57:34;;;;;;;5.17;2.00;;;12.10;99.90;;;;;;5014805;28;20188;-45
2023/01/02 05:59:59;;;;;;;4.50;1.87;;;12.10;99.90;;;;;;5014562;28;20189;-45
2023/01/02 06:02:25;;;;;;;4.93;2.00;;;12.10;99.90;;;;;;5014448;28;20323;-44
2023/01/02 06:04:51;;;;;;;6.50;1.97;;;12.10;99.90;;;;;;5014715;28;20213;-45
2023/01/02 06:07:17;;;;;;;4.67;1.80;;;12.10;99.90;;;;;;5014485;28;20165;-47
2023/01/02 06:09:42;;;;;;;6.83;1.87;;;12.10;99.90;;;;;;5014422;28;20258;-47
2023/01/02 06:12:08;;;;;;;5.53;1.70;;;12.10;99.90;;;;;;5014663;28;20276;-45
2023/01/02 06:14:34;;;;;;;5.70;1.73;;;12.00;99.90;;;;;;5014497;28;20273;-46
2023/01/02 06:17:00;;;;;;;4.83;1.73;;;12.00;99.90;;;;;;5014611;28;20239;-46
2023/01/02 06:19:25;;;;;;;3.37;1.80;;;12.10;99.90;;;;;;5014639;28;20588;-46
2023/01/02 06:21:51;;;;;;;3.90;2.00;;;12.10;99.90;;;;;;5014375;28;20621;-45
2023/01/02 06:24:17;;;;;;;7.93;2.27;;;12.10;99.90;;;;;;5014241;28;20210;-47
2023/01/02 06:26:42;;;;;;;7.10;2.43;;;12.10;99.90;;;;;;5014444;28;20193;-46
2023/01/02 06:29:08;;;;;;;5.60;1.97;;;12.00;99.90;;;;;;5014188;28;20196;-45
2023/01/02 06:31:34;;;;;;;3.40;2.00;;;12.10;99.90;;;;;;5014093;28;20197;-47
2023/01/02 06:34:00;;;;;;;5.47;1.70;;;12.00;99.90;;;;;;5014334;28;20587;-48
2023/01/02 06:36:29;;;;;;;3.40;2.03;;;12.00;99.90;;;;;;5014118;28;20264;-45
2023/01/02 06:38:56;;;;;;;5.43;1.67;;;12.00;99.90;;;;;;5014103;28;20525;-46
2023/01/02 06:41:21;;;;;;;4.80;2.07;;;12.00;99.90;;;;;;5013714;28;20222;-47
2023/01/02 06:43:48;;;;;;;5.27;1.90;;;11.90;99.90;;;;;;5013723;28;20192;-47
2023/01/02 06:46:16;;;;;;;8.30;2.20;;;11.90;99.90;;;;;;5014118;28;20227;-47
2023/01/02 06:48:42;;;;;;;5.90;1.63;;;11.90;99.90;;;;;;5013590;28;20189;-47
2023/01/02 06:51:11;;;;;;;5.90;1.67;;;11.90;99.90;;;;;;5012956;28;20208;-46
2023/01/02 06:53:38;;;;;;;6.40;1.83;;;11.90;99.90;;;;;;5013703;28;20181;-47
2023/01/02 06:56:04;;;;;;;3.87;1.70;;;11.90;99.90;;;;;;5013675;28;20185;-47
2023/01/02 06:58:31;;;;;;;5.83;1.70;;;11.90;99.90;;;;;;5013974;28;20205;-47
2023/01/02 07:01:05;;;;;;;2.90;1.40;;;11.90;99.90;;;;;;5013779;28;20636;-47
2023/01/02 07:03:30;;;;;;;8.10;1.83;;;11.90;99.90;;;;;;5014124;28;20208;-47
2023/01/02 07:06:01;;;;;;;3.23;2.03;;;11.90;99.90;;;;;;5013844;28;20181;-46
2023/01/02 07:08:26;;;;;;;7.60;2.10;;;11.80;99.90;;;;;;5013681;28;20185;-47
2023/01/02 07:10:52;;;;;;;7.73;2.07;;;11.80;99.90;;;;;;5013535;28;20240;-47
2023/01/02 07:13:17;;;;;;;6.77;2.10;;;11.80;99.90;;;;;;5013911;28;20533;-45
2023/01/02 07:15:43;;;;;;;3.47;1.80;;;11.80;99.90;;;;;;5013708;28;20201;-46
2023/01/02 07:18:08;;;;;;;5.30;2.13;;;11.80;99.90;;;;;;5013728;28;20169;-47
2023/01/02 07:20:34;;;;;;;6.27;1.90;;;11.70;99.90;;;;;;5013700;28;20311;-46
2023/01/02 07:22:59;;;;;;;5.27;1.90;;;11.70;99.90;;;;;;5013767;28;20190;-46
2023/01/02 07:25:25;;;;;;;4.67;2.00;;;11.70;99.90;;;;;;5013258;28;20206;-46
2023/01/02 07:27:50;;;;;;;4.33;2.07;;;11.70;99.90;;;;;;5013949;28;20614;-45
2023/01/02 07:30:16;;;;;;;6.00;2.23;;;11.70;99.90;;;;;;5013416;28;20182;-44
2023/01/02 07:32:42;;;;;;;8.13;2.50;;;11.70;99.90;;;;;;5013355;28;20207;-46
2023/01/02 07:35:08;;;;;;;2.33;1.53;;;11.60;99.90;;;;;;5013615;28;20181;-44
2023/01/02 07:37:34;;;;;;;3.83;1.83;;;11.70;99.90;;;;;;5013152;28;20209;-45
2023/01/02 07:39:59;;;;;;;3.13;1.80;;;11.60;99.90;;;;;;5013334;28;20216;-45
2023/01/02 07:42:25;;;;;;;7.27;1.73;;;11.60;99.90;;;;;;5013100;28;20271;-47
2023/01/02 07:44:50;;;;;;;6.20;2.00;;;11.70;99.90;;;;;;5013380;28;20328;-45
2023/01/02 07:47:17;;;;;;;4.07;1.90;;;11.70;99.90;;;;;;5013281;28;20182;-48
2023/01/02 07:49:42;;;;;;;4.40;2.07;;;11.70;99.90;;;;;;5013663;28;20192;-47
2023/01/02 07:52:08;;;;;;;7.33;2.07;;;11.60;99.90;;;;;;5013298;28;20190;-48
2023/01/02 07:54:34;;;;;;;7.33;1.87;;;11.70;99.90;;;;;;5013171;28;20185;-46
2023/01/02 07:57:00;;;;;;;4.13;1.80;;;11.60;99.90;;;;;;5013064;28;20670;-46
2023/01/02 07:59:25;;;;;;;4.37;1.63;;;11.60;99.90;;;;;;5013039;28;20178;-45
2023/01/02 08:01:51;;;;;;;3.23;1.67;;;11.60;99.90;;;;;;5012636;28;20198;-45
2023/01/02 08:04:16;;;;;;;4.40;1.97;;;11.60;99.90;;;;;;5017091;28;20213;-46
2023/01/02 08:06:42;;;;;;;6.13;1.97;;;11.60;99.90;;;;;;5016873;28;20185;-44
2023/01/02 08:09:07;;;;;;;5.27;1.87;;;11.70;99.90;;;;;;5016772;28;20209;-45
2023/01/02 08:11:33;;;;;;;4.50;1.60;;;11.60;99.90;;;;;;5016841;28;20221;-47
2023/01/02 08:13:58;;;;;;;3.60;1.93;;;11.60;99.90;;;;;;5016715;28;20185;-45
2023/01/02 08:16:24;;;;;;;4.60;1.97;;;11.60;99.90;;;;;;5016428;28;20192;-47
2023/01/02 08:18:54;;;;;;;3.00;1.77;;;11.60;99.90;;;;;;5016374;28;20195;-45
2023/01/02 08:21:23;;;;;;;6.10;1.90;;;11.60;99.90;;;;;;5016222;28;20284;-45
2023/01/02 08:23:49;;;;;;;1.73;1.47;;;11.60;99.90;;;;;;5016216;28;20177;-44
2023/01/02 08:26:15;;;;;;;4.43;1.63;;;11.60;99.90;;;;;;5016557;28;20182;-45
2023/01/02 08:28:41;;;;;;;3.97;2.07;;;11.60;99.90;;;;;;5016378;28;20181;-45
2023/01/02 08:31:18;;;;;;;3.23;1.50;;;11.60;99.90;;;;;;5016105;28;20272;-44
2023/01/02 08:33:44;;;;;;;3.83;1.67;;;11.60;99.90;;;;;;5016079;28;20176;-46
2023/01/02 08:36:10;;;;;;;3.83;1.70;;;11.60;99.90;;;;;;5016014;28;20185;-45
2023/01/02 08:38:36;;;;;;;2.33;1.33;;;11.60;99.90;;;;;;5016144;28;20669;-46
2023/01/02 08:41:01;;;;;;;2.63;1.30;;;11.60;99.90;;;;;;5015913;28;20247;-44
2023/01/02 08:43:27;;;;;;;3.33;1.43;;;11.60;99.90;;;;;;5015908;28;20177;-48
2023/01/02 08:45:54;;;;;;;1.13;1.00;;;11.50;99.90;;;;;;5015813;28;20198;-45
2023/01/02 08:48:19;;;;;;;2.60;1.40;;;11.50;99.90;;;;;;5015865;28;20179;-47
2023/01/02 08:50:45;;;;;;;1.10;0.83;;;11.50;99.90;;;;;;5015928;28;20196;-46
2023/01/02 08:53:11;;;;;;;2.43;1.07;;;11.50;99.90;;;;;;5016276;28;20174;-45
2023/01/02 08:55:36;;;;;;;1.17;1.00;;;11.40;99.90;;;;;;5015924;28;20184;-44
2023/01/02 08:58:02;;;;;;;1.63;1.13;;;11.30;99.90;;;;;;5030763;28;20189;-45
2023/01/02 09:00:27;;;;;;;1.17;0.77;;;11.20;99.90;;;;;;5015629;28;20671;-46
2023/01/02 09:02:53;;;;;;;1.40;1.10;;;11.00;99.90;;;;;;5015534;28;20673;-46
2023/01/02 09:05:18;;;;;;;1.37;0.80;;;11.00;99.90;;;;;;5015451;28;20237;-47
2023/01/02 09:07:44;;;;;;;1.17;0.90;;;10.90;99.90;;;;;;5015760;28;20178;-46
2023/01/02 09:10:10;;;;;;;2.43;1.10;;;10.90;99.90;;;;;;5015407;28;20534;-46
2023/01/02 09:12:36;;;;;;;1.43;1.07;;;10.80;99.90;;;;;;5015200;28;20292;-47
2023/01/02 09:15:02;;;;;;;1.60;1.10;;;10.80;99.90;;;;;;5014613;28;20228;-46
2023/01/02 09:17:28;;;;;;;1.40;1.30;;;10.80;99.90;;;;;;5015225;28;20182;-45
2023/01/02 09:19:53;;;;;;;1.83;1.13;;;10.80;99.90;;;;;;5015277;28;20186;-46
2023/01/02 09:22:19;;;;;;;4.70;1.40;;;10.80;99.90;;;;;;5013932;28;20748;-46
2023/01/02 09:24:45;;;;;;;1.30;1.20;;;10.70;99.90;;;;;;5015171;28;20209;-48
2023/01/02 09:27:11;;;;;;;3.93;1.73;;;10.70;99.90;;;;;;5015512;28;20268;-45
2023/01/02 09:29:36;;;;;;;2.50;1.90;;;10.70;99.90;;;;;;5015046;28;20305;-47
2023/01/02 09:32:02;;;;;;;2.07;1.50;;;10.70;99.90;;;;;;5015440;28;20193;-45
2023/01/02 09:34:27;;;;;;;2.70;1.80;;;10.70;99.90;;;;;;5015313;28;20212;-45
2023/01/02 09:36:53;;;;;;;2.93;2.10;;;10.70;99.90;;;;;;5015275;28;20542;-46
2023/01/02 09:39:18;;;;;;;2.27;1.70;;;10.70;99.90;;;;;;5015571;28;20515;-45
2023/01/02 09:41:51;;;;;;;3.30;1.97;;;10.70;99.90;;;;;;5014817;28;20229;-47
2023/01/02 09:44:33;;;;;;;3.00;1.60;;;10.70;99.90;;;;;;5014746;28;20223;-46
2023/01/02 09:47:13;;;;;;;2.80;1.80;;;10.70;99.90;;;;;;5015369;28;20165;-48
2023/01/02 09:49:51;;;;;;;2.40;1.90;;;10.70;99.90;;;;;;5015451;28;20169;-47
2023/01/02 09:52:29;;;;;;;2.50;1.80;;;10.60;99.90;;;;;;5014829;28;20193;-45
2023/01/02 09:54:55;;;;;;;3.93;1.80;;;10.60;99.90;;;;;;5015443;28;20610;-47
2023/01/02 09:57:27;;;;;;;3.50;2.20;;;10.60;99.90;;;;;;5014795;28;20239;-46
2023/01/02 10:00:17;;;;;;;4.03;2.50;;;10.60;99.90;;;;;;5014897;28;20192;-47
2023/01/02 10:02:50;;;;;;;2.93;1.97;;;10.60;99.90;;;;;;5015046;28;20205;-48
2023/01/02 10:05:43;;;;;;;3.63;2.10;;;10.60;99.90;;;;;;5015198;28;20194;-45
2023/01/02 10:08:48;;;;;;;3.47;2.20;;;10.60;99.90;;;;;;5014791;28;20223;-46
2023/01/02 10:11:41;;;;;;;3.07;2.17;;;10.60;99.90;;;;;;5014578;28;20256;-47
2023/01/02 10:14:16;;;;;;;2.83;2.30;;;10.60;99.90;;;;;;5014477;28;20174;-46
2023/01/02 10:16:45;;;;;;;4.47;3.30;;;10.70;99.90;;;;;;5012944;28;20220;-46
2023/01/02 10:19:21;;;;;;;4.03;2.93;;;10.70;99.90;;;;;;5014486;28;20188;-46
2023/01/02 10:21:51;;;;;;;4.83;3.53;;;10.70;99.90;;;;;;5014047;28;20271;-47
2023/01/02 10:24:19;;;;;;;5.20;3.53;;;10.70;99.90;;;;;;5013803;28;20213;-47
2023/01/02 10:26:52;;;;;;;4.80;3.60;;;10.70;99.90;;;;;;5014129;28;20186;-46
2023/01/02 10:29:28;;;;;;;5.30;3.20;;;10.80;99.90;;;;;;5014106;28;20248;-46
2023/01/02 10:32:04;;;;;;;4.90;3.60;;;10.80;99.90;;;;;;5014045;28;20577;-45
2023/01/02 10:35:05;;;;;;;6.30;4.07;;;10.80;99.90;;;;;;5014098;28;20189;-47
2023/01/02 10:37:31;;;;;;;5.67;3.83;;;10.80;99.90;;;;;;5012669;28;20177;-44
2023/01/02 10:39:57;;;;;;;5.97;3.80;;;10.80;99.90;;;;;;5014656;28;20272;-45
2023/01/02 10:42:23;;;;;;;5.90;4.23;;;10.80;99.90;;;;;;5013648;28;20213;-46
2023/01/02 10:44:49;;;;;;;4.80;3.77;;;10.80;99.90;;;;;;5012709;28;20220;-46
2023/01/02 10:47:36;;;;;;;5.20;3.73;;;10.80;99.90;;;;;;5013891;28;20178;-46
2023/01/02 10:50:07;;;;;;;5.53;4.00;;;10.80;99.90;;;;;;5014087;28;20180;-45
2023/01/02 10:52:38;;;;;;;4.17;3.30;;;10.90;99.90;;;;;;5013688;28;20267;-44
2023/01/02 10:55:04;;;;;;;5.50;3.80;;;10.90;99.90;;;;;;5014041;28;20178;-44
2023/01/02 10:57:42;;;;;;;4.10;3.37;;;11.00;99.90;;;;;;5013585;28;20177;-46
2023/01/02 11:00:17;;;;;;;5.70;3.70;;;11.00;99.90;;;;;;5014272;28;20181;-44
2023/01/02 11:02:49;;;;;;;4.17;3.27;;;11.10;99.90;;;;;;5013793;28;20196;-45
2023/01/02 11:05:23;;;;;;;6.30;3.70;;;11.10;99.90;;;;;;5013745;28;20197;-47
2023/01/02 11:07:50;;;;;;;4.23;3.40;;;11.10;99.90;;;;;;5013944;28;20246;-46
2023/01/02 11:10:37;;;;;;;4.07;2.90;;;11.10;99.90;;;;;;5013575;28;20610;-45
2023/01/02 11:13:07;;;;;;;5.03;3.13;;;11.10;99.90;;;;;;5013889;28;20178;-45
2023/01/02 11:15:34;;;;;;;3.73;2.93;;;11.10;99.90;;;;;;5013419;28;20657;-44
2023/01/02 11:18:01;;;;;;;3.07;2.70;;;11.10;99.90;;;;;;5013374;28;20268;-44
2023/01/02 11:20:34;;;;;;;2.93;2.60;;;11.10;99.90;;;;;;5013350;28;20177;-45
2023/01/02 11:23:02;;;;;;;4.07;2.70;;;11.10;99.90;;;;;;5013172;28;20268;-44
2023/01/02 11:25:35;;;;;;;4.10;2.40;;;11.00;99.90;;;;;;5013221;28;20597;-47
2023/01/02 11:28:01;;;;;;;2.83;2.53;;;11.00;99.90;;;;;;5013521;28;20158;-46
2023/01/02 11:30:43;;;;;;;2.20;2.00;;;11.00;99.90;;;;;;5013671;28;20177;-45
2023/01/02 11:33:30;;;;;;;2.87;2.37;;;11.00;99.90;;;;;;5013497;28;20506;-46
2023/01/02 11:36:04;;;;;;;2.30;1.97;;;11.00;99.90;;;;;;5013366;28;20205;-46
2023/01/02 11:38:57;;;;;;;1.90;1.70;;;11.00;99.90;;;;;;5017053;28;20169;-47
2023/01/02 11:44:32;;;;;;;2.07;1.87;;;11.00;99.90;;;;;;5017188;28;20755;-47
2023/01/02 11:46:59;;;;;;;3.93;3.33;;;11.00;99.90;;;;;;5016987;28;20176;-47
2023/01/02 11:49:31;;;;;;;4.60;3.80;;;11.00;99.90;;;;;;5016943;28;20280;-47
2023/01/02 11:52:02;;;;;;;7.30;4.03;;;10.90;99.90;;;;;;5016815;28;20209;-45
2023/01/02 11:54:43;;;;;;;4.03;3.10;;;10.80;99.90;;;;;;5017406;28;20494;-47
2023/01/02 11:57:33;;;;;;;3.83;2.77;;;10.70;99.90;;;;;;5016846;28;20186;-47
2023/01/02 12:00:02;;;;;;;3.93;2.90;;;10.70;99.90;;;;;;5016965;28;20219;-45
2023/01/02 12:02:38;;;;;;;6.20;3.00;;;10.70;99.90;;;;;;5016863;28;20229;-47
2023/01/02 12:05:31;;;;;;;5.37;3.20;;;10.70;99.90;;;;;;5016719;28;20351;-48
2023/01/02 12:08:07;;;;;;;3.83;3.30;;;10.80;99.90;;;;;;5017162;28;20173;-46
2023/01/02 12:11:11;;;;;;;4.57;3.13;;;10.80;99.90;;;;;;5016848;28;20185;-46
2023/01/02 12:13:51;;;;;;;5.00;3.60;;;10.80;99.90;;;;;;5005768;28;20204;-46
2023/01/02 12:17:15;;;;;;;4.10;3.10;;;10.80;99.90;;;;;;5016715;28;20293;-47
2023/01/02 12:20:14;;;;;;;6.27;3.47;;;10.80;99.90;;;;;;4921283;29;20212;-47
2023/01/02 12:22:54;;;;;;;6.43;3.43;;;10.80;99.90;;;;;;4937083;29;20291;-48
2023/01/02 12:25:42;;;;;;;4.77;3.37;;;10.80;99.90;;;;;;5011000;28;20216;-47
2023/01/02 12:28:33;;;;;;;5.70;3.83;;;10.80;99.90;;;;;;5015021;28;20177;-47
2023/01/02 12:31:15;;;;;;;4.60;3.53;;;10.80;99.90;;;;;;5016326;28;20559;-47
2023/01/02 12:34:06;;;;;;;6.63;4.00;;;10.80;99.90;;;;;;5016931;28;20162;-50
2023/01/02 12:36:59;;;;;;;6.57;4.20;;;10.90;99.90;;;;;;4989365;28;20197;-50
2023/01/02 12:39:38;;;;;;;5.50;3.87;;;10.80;99.90;;;;;;5036064;28;20173;-49
2023/01/02 12:42:39;;;;;;;5.67;4.00;;;10.90;99.90;;;;;;5035823;28;20277;-49
2023/01/02 12:45:17;;;;;;;5.17;4.00;;;10.90;99.90;;;;;;4917388;29;20298;-50
2023/01/02 12:47:45;;;;;;;5.00;3.80;;;10.90;99.90;;;;;;5020424;28;20212;-49
2023/01/02 12:50:42;;;;;;;5.30;3.80;;;10.90;99.90;;;;;;5035224;28;20235;-50
2023/01/02 12:53:16;;;;;;;4.27;3.23;;;10.90;99.90;;;;;;5035962;28;20174;-50
2023/01/02 12:56:11;;;;;;;4.10;3.43;;;10.90;99.90;;;;;;5036049;28;20165;-49
2023/01/02 12:58:45;;;;;;;3.37;2.93;;;10.90;99.90;;;;;;5035723;28;20169;-51
2023/01/02 13:01:38;;;;;;;5.87;3.27;;;10.90;99.90;;;;;;5035655;28;20193;-49
2023/01/02 13:04:15;;;;;;;6.80;3.80;;;10.90;99.90;;;;;;5035516;28;20203;-51
2023/01/02 13:06:48;;;;;;;3.33;3.03;;;10.90;99.90;;;;;;5035614;28;20161;-50
2023/01/02 13:09:24;;;;;;;4.07;3.20;;;10.90;99.90;;;;;;5036029;28;20158;-50
2023/01/02 13:12:14;;;;;;;3.37;2.83;;;10.90;99.90;;;;;;5035810;28;20232;-49
2023/01/02 13:14:52;;;;;;;3.73;3.30;;;10.90;99.90;;;;;;5021681;28;20201;-50